Time;durP1;ratioP1;P1;durP2;ratioP2;P2;SDS_P1;SDS_P2;PMS_P1;PMS_P2;Temp;Humidity;BMP_temperature;BMP_pressure;BME280_temperature;BME280_humidity;BME280_pressure;Samples;Min_cycle;Max_cycle;Signal;HPM_P1;HPM_P2
2020/12/20 08:25:44;;;;;;;8.30;1.53;;;22.70;90.30;;;;;;5080988;27;20625;-72
2020/12/20 08:28:11;;;;;;;7.63;1.87;;;22.40;90.50;;;;;;5077826;28;20652;-72
2020/12/20 08:30:39;;;;;;;7.53;1.77;;;22.40;90.60;;;;;;5085235;28;20191;-73
2020/12/20 08:33:06;;;;;;;2.33;1.30;;;22.40;90.70;;;;;;5084655;28;20593;-73
2020/12/20 08:35:34;;;;;;;4.67;1.23;;;22.40;90.80;;;;;;5079465;28;20236;-73
2020/12/20 08:38:01;;;;;;;6.50;2.10;;;22.30;90.80;;;;;;5073582;28;20210;-72
2020/12/20 08:40:31;;;;;;;8.23;2.10;;;22.20;90.90;;;;;;5082469;28;20175;-74
2020/12/20 08:43:00;;;;;;;4.80;2.03;;;22.20;91.10;;;;;;5086861;28;20636;-73
2020/12/20 08:45:29;;;;;;;8.40;1.63;;;22.10;90.90;;;;;;5082038;28;20636;-73
2020/12/20 08:48:04;;;;;;;33.07;26.47;;;22.10;91.20;;;;;;5083026;28;20186;-72
2020/12/20 08:50:33;;;;;;;11.93;5.60;;;22.10;91.10;;;;;;5085761;28;20274;-73
2020/12/20 08:53:05;;;;;;;8.30;2.63;;;22.00;91.10;;;;;;5081079;28;20593;-72
2020/12/20 08:55:33;;;;;;;6.37;1.47;;;22.00;91.30;;;;;;5085759;28;20175;-71
2020/12/20 08:58:07;;;;;;;5.30;1.77;;;21.90;91.50;;;;;;5084033;28;20175;-71
2020/12/20 09:00:35;;;;;;;6.90;1.70;;;21.80;91.70;;;;;;5079885;28;20185;-72
2020/12/20 09:03:06;;;;;;;7.33;1.63;;;21.80;91.90;;;;;;5077176;28;20179;-74
2020/12/20 09:05:38;;;;;;;5.63;1.70;;;21.80;92.10;;;;;;5082506;28;20215;-74
2020/12/20 09:08:05;;;;;;;4.87;1.70;;;21.70;92.10;;;;;;5083065;28;20175;-73
2020/12/20 09:10:34;;;;;;;6.17;2.00;;;21.70;92.40;;;;;;5085189;28;20190;-73
2020/12/20 09:13:05;;;;;;;4.57;1.50;;;21.70;92.50;;;;;;5082009;28;20182;-72
2020/12/20 09:15:39;;;;;;;6.03;2.20;;;21.60;92.40;;;;;;5085753;28;20188;-73
2020/12/20 09:18:29;;;;;;;4.17;1.50;;;21.60;92.50;;;;;;5084663;28;20184;-73
2020/12/20 09:20:56;;;;;;;6.47;1.60;;;21.60;92.70;;;;;;5079590;28;20175;-72
2020/12/20 09:23:25;;;;;;;8.43;1.63;;;21.60;92.80;;;;;;5083543;28;20223;-72
2020/12/20 09:26:03;;;;;;;5.17;1.93;;;21.50;92.90;;;;;;5082584;28;20213;-72
2020/12/20 09:28:33;;;;;;;4.57;1.60;;;21.50;93.10;;;;;;5080434;28;20179;-75
2020/12/20 09:31:01;;;;;;;3.83;1.40;;;21.50;93.10;;;;;;5075205;28;20175;-73
2020/12/20 09:33:36;;;;;;;4.13;1.40;;;21.50;93.30;;;;;;5075353;28;20217;-74
2020/12/20 09:36:35;;;;;;;6.87;1.50;;;21.50;93.20;;;;;;5071261;28;20202;-73
2020/12/20 09:39:04;;;;;;;5.03;1.50;;;21.40;93.20;;;;;;5058563;28;20716;-73
2020/12/20 09:41:33;;;;;;;7.07;1.20;;;21.40;93.30;;;;;;5068504;28;20175;-73
2020/12/20 09:44:00;;;;;;;6.63;1.50;;;21.30;93.50;;;;;;5066886;28;20665;-73
2020/12/20 09:46:34;;;;;;;6.07;1.60;;;21.30;93.60;;;;;;5069415;28;20642;-73
2020/12/20 09:49:02;;;;;;;8.37;1.70;;;21.30;93.70;;;;;;5068880;28;20211;-73
2020/12/20 09:51:32;;;;;;;8.53;1.63;;;21.30;93.70;;;;;;5067204;28;20234;-73
2020/12/20 09:54:00;;;;;;;6.90;1.93;;;21.30;93.50;;;;;;5064302;28;20555;-76
2020/12/20 09:56:27;;;;;;;6.57;1.90;;;21.20;93.50;;;;;;5066304;28;20171;-75
2020/12/20 09:58:54;;;;;;;3.47;1.60;;;21.20;93.60;;;;;;5070762;28;20213;-74
2020/12/20 10:01:25;;;;;;;6.07;1.83;;;21.20;93.60;;;;;;5069749;28;20670;-74
2020/12/20 10:03:53;;;;;;;3.73;1.40;;;21.20;93.50;;;;;;5062545;28;20207;-73
2020/12/20 10:06:21;;;;;;;8.07;1.77;;;21.20;93.40;;;;;;5066751;28;20175;-74
2020/12/20 10:08:48;;;;;;;8.17;3.77;;;21.30;93.40;;;;;;5062525;28;20184;-73
2020/12/20 10:11:21;;;;;;;6.73;3.10;;;21.30;93.50;;;;;;5066838;28;20191;-82
2020/12/20 10:13:48;;;;;;;7.13;3.30;;;21.30;93.50;;;;;;5068934;28;20689;-75
2020/12/20 10:16:23;;;;;;;5.67;1.90;;;21.30;93.60;;;;;;5069079;28;20179;-75
2020/12/20 10:18:52;;;;;;;3.83;1.60;;;21.30;93.70;;;;;;5065359;28;20551;-75
2020/12/20 10:21:19;;;;;;;5.80;1.50;;;21.30;93.70;;;;;;5065806;28;20717;-74
2020/12/20 10:23:46;;;;;;;4.73;1.50;;;21.40;93.60;;;;;;5068146;28;20254;-74
2020/12/20 10:26:14;;;;;;;11.57;2.20;;;21.40;93.60;;;;;;5065718;28;20183;-76
2020/12/20 10:28:41;;;;;;;7.93;1.90;;;21.30;93.70;;;;;;5067586;28;20179;-73
2020/12/20 10:31:08;;;;;;;9.53;2.47;;;21.30;93.80;;;;;;5058485;28;20184;-72
2020/12/20 10:33:37;;;;;;;6.93;1.60;;;21.30;94.20;;;;;;5070506;28;20252;-73
2020/12/20 10:36:04;;;;;;;5.67;1.70;;;21.20;94.30;;;;;;5067399;28;20216;-73
2020/12/20 10:38:32;;;;;;;7.77;1.97;;;21.20;94.30;;;;;;5066271;28;20257;-72
2020/12/20 10:40:59;;;;;;;6.63;1.67;;;21.20;94.40;;;;;;5067834;28;20176;-74
2020/12/20 10:43:27;;;;;;;6.03;1.67;;;21.20;94.50;;;;;;5068775;28;20180;-74
2020/12/20 10:45:54;;;;;;;10.80;1.77;;;21.10;94.60;;;;;;5061760;28;20183;-75
2020/12/20 10:48:21;;;;;;;4.33;1.40;;;21.10;94.40;;;;;;5060336;28;20180;-72
2020/12/20 10:50:49;;;;;;;5.83;1.63;;;21.00;94.40;;;;;;5058748;28;20183;-73
2020/12/20 10:53:16;;;;;;;9.43;1.73;;;21.00;94.40;;;;;;5065596;28;20168;-72
2020/12/20 10:55:44;;;;;;;9.60;1.87;;;21.00;94.50;;;;;;5063037;28;20194;-73
2020/12/20 10:58:11;;;;;;;5.60;1.33;;;20.90;94.70;;;;;;5065785;28;20179;-75
2020/12/20 11:00:38;;;;;;;11.27;1.90;;;20.90;94.90;;;;;;5066390;28;20216;-76
2020/12/20 11:03:06;;;;;;;5.80;2.27;;;20.90;95.10;;;;;;5068609;28;20245;-73
2020/12/20 11:05:33;;;;;;;5.97;1.83;;;20.80;95.10;;;;;;5065828;28;20211;-72
2020/12/20 11:08:01;;;;;;;6.77;1.70;;;20.80;95.30;;;;;;5062166;28;20172;-72
2020/12/20 11:10:29;;;;;;;6.50;1.63;;;20.80;95.40;;;;;;5065102;28;20187;-73
2020/12/20 11:12:56;;;;;;;4.53;1.37;;;20.70;95.60;;;;;;5062661;28;20551;-74
2020/12/20 11:15:23;;;;;;;5.73;1.50;;;20.70;95.50;;;;;;5056040;28;20226;-73
2020/12/20 11:17:51;;;;;;;8.77;2.20;;;20.70;95.60;;;;;;5056267;28;20188;-74
2020/12/20 11:20:18;;;;;;;5.63;1.87;;;20.70;95.80;;;;;;5064984;28;20179;-73
2020/12/20 11:22:46;;;;;;;8.87;2.00;;;20.70;95.70;;;;;;5069117;28;20204;-73
2020/12/20 11:25:13;;;;;;;3.93;1.73;;;20.60;95.70;;;;;;5057282;28;20238;-73
2020/12/20 11:27:41;;;;;;;7.20;1.83;;;20.60;95.70;;;;;;5058166;28;20227;-74
2020/12/20 11:30:08;;;;;;;12.77;2.13;;;20.60;95.80;;;;;;5060875;28;20289;-73
2020/12/20 11:32:36;;;;;;;5.90;1.70;;;20.60;95.90;;;;;;5063576;28;20194;-73
2020/12/20 11:35:04;;;;;;;7.87;1.93;;;20.60;95.80;;;;;;5065874;28;20210;-72
2020/12/20 11:37:32;;;;;;;5.13;1.97;;;20.50;95.90;;;;;;5061037;28;20550;-77
2020/12/20 11:40:00;;;;;;;9.20;2.17;;;20.50;96.10;;;;;;5065187;28;20649;-73
2020/12/20 11:42:28;;;;;;;6.10;1.63;;;20.50;96.10;;;;;;5065065;28;20182;-75
2020/12/20 11:44:56;;;;;;;10.30;2.17;;;20.50;96.20;;;;;;5064712;28;20704;-74
2020/12/20 11:47:23;;;;;;;10.53;2.00;;;20.50;96.60;;;;;;5061981;28;20186;-73
2020/12/20 11:49:51;;;;;;;10.07;2.03;;;20.50;96.20;;;;;;5066016;28;20178;-77
2020/12/20 11:52:18;;;;;;;6.90;1.90;;;20.50;96.30;;;;;;5067500;28;20179;-73
2020/12/20 11:54:46;;;;;;;12.60;2.33;;;20.50;96.40;;;;;;5067749;28;20188;-74
2020/12/20 11:57:13;;;;;;;7.50;2.40;;;20.50;96.50;;;;;;5060821;28;20186;-77
2020/12/20 11:59:40;;;;;;;6.60;1.77;;;20.40;96.70;;;;;;5068249;28;20288;-75
2020/12/20 12:02:08;;;;;;;11.00;2.10;;;20.40;96.50;;;;;;5066230;28;20185;-75
2020/12/20 12:04:35;;;;;;;7.07;1.80;;;20.40;96.60;;;;;;5065973;28;20222;-77
2020/12/20 12:07:02;;;;;;;6.33;1.77;;;20.50;96.60;;;;;;5068583;28;20171;-74
2020/12/20 12:09:30;;;;;;;6.70;1.53;;;20.40;96.60;;;;;;5061111;28;20180;-73
2020/12/20 12:11:57;;;;;;;13.23;2.10;;;20.40;96.70;;;;;;5064864;28;20535;-77
2020/12/20 12:14:24;;;;;;;8.97;2.43;;;20.40;96.80;;;;;;5068258;28;20187;-73
2020/12/20 12:16:52;;;;;;;8.30;2.37;;;20.40;97.00;;;;;;5066960;28;20537;-74
2020/12/20 12:19:19;;;;;;;4.57;1.83;;;20.40;96.80;;;;;;5066672;28;20223;-76
2020/12/20 12:21:48;;;;;;;10.13;2.30;;;20.40;97.10;;;;;;5063974;28;20181;-73
2020/12/20 12:24:15;;;;;;;9.53;2.37;;;20.40;96.90;;;;;;5062066;28;20263;-74
2020/12/20 12:26:47;;;;;;;11.70;2.00;;;20.40;96.90;;;;;;5068170;28;20206;-74
2020/12/20 12:29:15;;;;;;;5.40;1.97;;;20.40;96.80;;;;;;5063565;28;20247;-74
2020/12/20 12:31:42;;;;;;;6.77;2.07;;;20.40;96.70;;;;;;5063453;28;20210;-78
2020/12/20 12:34:10;;;;;;;8.30;1.70;;;20.30;96.70;;;;;;5064519;28;20210;-73
2020/12/20 12:36:37;;;;;;;3.83;1.43;;;20.30;96.80;;;;;;5062375;28;20233;-75
2020/12/20 12:39:06;;;;;;;9.33;1.83;;;20.30;96.80;;;;;;5055186;28;20256;-72
2020/12/20 12:41:33;;;;;;;8.57;2.37;;;20.20;97.00;;;;;;5059063;28;20207;-75
2020/12/20 12:44:01;;;;;;;6.20;1.87;;;20.20;97.20;;;;;;5062102;28;20314;-76
2020/12/20 12:46:28;;;;;;;8.87;1.83;;;20.10;97.20;;;;;;5071047;28;20209;-76
2020/12/20 12:48:55;;;;;;;3.43;1.63;;;20.10;97.20;;;;;;5066001;28;20186;-75
2020/12/20 12:51:24;;;;;;;7.97;1.53;;;20.10;97.30;;;;;;5071267;28;20180;-75
2020/12/20 12:53:53;;;;;;;9.03;1.70;;;20.10;97.30;;;;;;5070980;28;20201;-73
2020/12/20 12:56:20;;;;;;;10.43;2.43;;;20.00;97.40;;;;;;5065261;28;21063;-73
2020/12/20 12:58:48;;;;;;;8.63;1.77;;;20.10;97.60;;;;;;5071748;28;20638;-74
2020/12/20 13:01:15;;;;;;;9.27;2.53;;;20.10;97.60;;;;;;5071529;28;20222;-73
2020/12/20 13:03:43;;;;;;;9.50;2.00;;;20.00;97.50;;;;;;5070971;28;20221;-75
2020/12/20 13:06:19;;;;;;;11.90;2.17;;;20.00;97.50;;;;;;5070253;28;20205;-75
2020/12/20 13:08:46;;;;;;;13.97;2.53;;;20.00;97.50;;;;;;5071179;28;20183;-75
2020/12/20 13:11:13;;;;;;;6.27;2.00;;;20.00;97.50;;;;;;5073353;28;20229;-74
2020/12/20 13:13:42;;;;;;;6.90;1.50;;;20.00;97.50;;;;;;5072885;28;20579;-72
2020/12/20 13:16:12;;;;;;;6.20;1.97;;;20.00;97.50;;;;;;5074373;28;20270;-74
2020/12/20 13:18:39;;;;;;;11.00;2.50;;;20.10;97.50;;;;;;5075532;28;20591;-75
2020/12/20 13:21:07;;;;;;;6.47;2.00;;;20.10;97.50;;;;;;5074792;28;20274;-75
2020/12/20 13:23:35;;;;;;;9.20;2.03;;;20.10;97.50;;;;;;5075250;28;20700;-77
2020/12/20 13:26:04;;;;;;;6.30;1.90;;;20.10;97.50;;;;;;5074951;28;20241;-73
2020/12/20 13:28:32;;;;;;;6.33;2.13;;;20.20;97.40;;;;;;5074721;28;20175;-74
2020/12/20 13:30:59;;;;;;;7.53;2.03;;;20.20;97.30;;;;;;5075668;28;20180;-76
2020/12/20 13:33:28;;;;;;;8.07;2.10;;;20.20;97.30;;;;;;5075235;28;20190;-77
2020/12/20 13:35:55;;;;;;;7.40;1.63;;;20.20;97.20;;;;;;5075419;28;20186;-76
2020/12/20 13:38:23;;;;;;;4.63;1.67;;;20.10;97.20;;;;;;5075348;28;20198;-75
2020/12/20 13:40:52;;;;;;;7.17;2.20;;;20.20;97.20;;;;;;5074324;28;20649;-79
2020/12/20 13:43:19;;;;;;;9.30;2.13;;;20.10;97.20;;;;;;5074198;28;20179;-76
2020/12/20 13:45:47;;;;;;;10.57;2.23;;;20.10;97.30;;;;;;5073214;28;20219;-75
2020/12/20 13:48:14;;;;;;;10.47;2.03;;;20.10;97.40;;;;;;5063507;28;20685;-77
2020/12/20 13:50:42;;;;;;;7.23;2.40;;;20.10;97.40;;;;;;5068987;28;20270;-77
2020/12/20 13:53:09;;;;;;;5.73;2.07;;;20.10;97.30;;;;;;5073174;28;20175;-76
2020/12/20 13:55:36;;;;;;;5.07;2.10;;;20.10;97.20;;;;;;5072819;28;20175;-76
2020/12/20 13:58:05;;;;;;;6.23;1.90;;;20.10;97.20;;;;;;5074655;28;20233;-79
2020/12/20 14:00:37;;;;;;;6.73;2.03;;;20.10;97.30;;;;;;5071733;28;20529;-75
2020/12/20 14:03:05;;;;;;;10.50;2.20;;;20.10;97.30;;;;;;5074675;28;20194;-76
2020/12/20 14:05:32;;;;;;;8.63;2.17;;;20.00;97.40;;;;;;5073497;28;20219;-75
2020/12/20 14:08:00;;;;;;;4.33;1.80;;;20.00;97.60;;;;;;5074470;28;20189;-75
2020/12/20 14:10:27;;;;;;;6.87;1.73;;;20.00;97.60;;;;;;5074443;28;20179;-74
2020/12/20 14:12:54;;;;;;;6.23;1.77;;;20.00;97.60;;;;;;5074560;28;20635;-79
2020/12/20 14:15:22;;;;;;;6.30;1.80;;;20.00;97.50;;;;;;5073421;28;20637;-75
2020/12/20 14:17:49;;;;;;;5.53;1.43;;;19.90;97.50;;;;;;5074025;28;20530;-78
2020/12/20 14:20:17;;;;;;;8.87;1.87;;;19.90;97.50;;;;;;5074423;28;20263;-76
2020/12/20 14:22:45;;;;;;;6.70;2.03;;;19.90;97.60;;;;;;5074466;28;20191;-76
2020/12/20 14:25:12;;;;;;;10.30;2.97;;;19.80;97.70;;;;;;5072924;28;20223;-75
2020/12/20 14:27:40;;;;;;;8.40;2.70;;;19.90;97.80;;;;;;5074669;28;20652;-78
2020/12/20 14:30:07;;;;;;;8.37;2.10;;;19.90;97.80;;;;;;5074184;28;20664;-74
2020/12/20 14:32:36;;;;;;;7.27;2.00;;;19.90;97.80;;;;;;5066714;28;20175;-75
2020/12/20 14:35:05;;;;;;;7.33;2.00;;;19.90;97.80;;;;;;5073413;28;20187;-78
2020/12/20 14:37:36;;;;;;;6.27;1.83;;;20.00;97.80;;;;;;5074294;28;20178;-74
2020/12/20 14:40:04;;;;;;;9.20;2.13;;;19.90;97.70;;;;;;5073497;28;20183;-74
2020/12/20 14:42:32;;;;;;;7.20;1.60;;;20.00;97.70;;;;;;5074283;28;20325;-76
2020/12/20 14:44:59;;;;;;;5.47;2.10;;;20.00;97.80;;;;;;5072697;28;20215;-76
2020/12/20 14:47:27;;;;;;;4.93;1.77;;;20.00;97.70;;;;;;5072716;28;20178;-74
2020/12/20 14:49:54;;;;;;;8.00;2.30;;;20.00;97.70;;;;;;5064058;28;20209;-75
2020/12/20 14:52:21;;;;;;;7.17;1.67;;;20.00;97.70;;;;;;5073634;28;20179;-78
2020/12/20 14:54:49;;;;;;;3.63;1.80;;;20.00;97.60;;;;;;5073355;28;20183;-75
2020/12/20 14:57:16;;;;;;;6.83;2.00;;;20.00;97.50;;;;;;5068500;28;20205;-75
2020/12/20 14:59:44;;;;;;;8.90;1.80;;;20.00;97.60;;;;;;5073639;28;20250;-76
2020/12/20 15:02:11;;;;;;;6.97;2.00;;;20.00;97.70;;;;;;5073290;28;20172;-75
2020/12/20 15:04:38;;;;;;;3.20;1.47;;;20.00;97.60;;;;;;5073339;28;20187;-74
2020/12/20 15:07:05;;;;;;;14.93;2.27;;;20.00;97.60;;;;;;5071737;28;20191;-76
2020/12/20 15:09:34;;;;;;;7.50;2.40;;;20.00;97.60;;;;;;5073163;28;20201;-75
2020/12/20 15:12:01;;;;;;;6.70;1.90;;;20.00;97.60;;;;;;5073644;28;20184;-76
2020/12/20 15:14:28;;;;;;;8.03;1.93;;;20.10;97.60;;;;;;5073564;28;20173;-75
2020/12/20 15:16:56;;;;;;;7.33;2.37;;;20.10;97.60;;;;;;5072302;28;20179;-75
2020/12/20 15:19:23;;;;;;;7.63;2.30;;;20.00;97.50;;;;;;5073576;28;20175;-75
2020/12/20 15:21:51;;;;;;;5.70;2.33;;;20.00;97.40;;;;;;5072804;28;20638;-75
2020/12/20 15:24:18;;;;;;;8.83;2.00;;;20.00;97.50;;;;;;5072831;28;20396;-74
2020/12/20 15:26:46;;;;;;;7.20;2.23;;;20.00;97.50;;;;;;5072876;28;20187;-75
2020/12/20 15:29:13;;;;;;;8.30;2.43;;;20.00;97.50;;;;;;5072345;28;20722;-75
2020/12/20 15:31:44;;;;;;;5.20;2.17;;;19.90;97.60;;;;;;5072785;28;20229;-74
2020/12/20 15:34:12;;;;;;;5.47;2.10;;;19.90;97.60;;;;;;5072370;28;20171;-75
2020/12/20 15:36:39;;;;;;;7.00;2.10;;;19.90;97.60;;;;;;5072634;28;20187;-78
2020/12/20 15:39:07;;;;;;;9.40;2.83;;;19.90;97.70;;;;;;5073072;28;20195;-75
2020/12/20 15:41:34;;;;;;;5.40;1.90;;;19.90;97.70;;;;;;5073260;28;20255;-75
2020/12/20 15:44:01;;;;;;;4.53;1.93;;;19.90;97.70;;;;;;5070824;28;20281;-75
2020/12/20 15:46:29;;;;;;;6.47;2.33;;;19.90;97.60;;;;;;5073005;28;20520;-75
2020/12/20 15:48:56;;;;;;;3.90;1.60;;;19.80;97.70;;;;;;5065913;28;20641;-75
2020/12/20 15:51:24;;;;;;;8.23;2.67;;;19.80;97.70;;;;;;5072710;28;20191;-77
2020/12/20 15:53:51;;;;;;;6.57;2.30;;;19.80;98.00;;;;;;5072093;28;20828;-78
2020/12/20 15:56:19;;;;;;;4.97;2.10;;;19.70;97.90;;;;;;5071830;28;20182;-80
2020/12/20 15:58:46;;;;;;;5.53;1.80;;;19.70;97.80;;;;;;5072625;28;20281;-78
2020/12/20 16:01:13;;;;;;;9.87;2.10;;;19.70;97.90;;;;;;5072408;28;20187;-79
2020/12/20 16:03:41;;;;;;;6.63;1.97;;;19.70;98.00;;;;;;5072278;28;20644;-78
2020/12/20 16:06:09;;;;;;;9.87;2.53;;;19.70;98.00;;;;;;5057857;28;20661;-79
2020/12/20 16:08:36;;;;;;;11.07;2.67;;;19.70;97.90;;;;;;5071443;28;20674;-77
2020/12/20 16:11:03;;;;;;;8.80;2.37;;;19.70;98.00;;;;;;5071888;28;20191;-79
2020/12/20 16:13:31;;;;;;;5.83;2.20;;;19.70;98.00;;;;;;5072259;28;20650;-77
2020/12/20 16:15:58;;;;;;;7.30;2.03;;;19.60;98.00;;;;;;5072214;28;20254;-79
2020/12/20 16:18:26;;;;;;;6.13;2.07;;;19.60;98.10;;;;;;5071383;28;20187;-76
2020/12/20 16:20:55;;;;;;;4.87;2.07;;;19.60;98.10;;;;;;5071508;28;20183;-79
2020/12/20 16:23:22;;;;;;;6.00;2.73;;;19.60;98.10;;;;;;5071425;28;20179;-80
2020/12/20 16:25:50;;;;;;;7.80;2.13;;;19.50;98.20;;;;;;5072171;28;20218;-75
2020/12/20 16:28:17;;;;;;;5.40;2.10;;;19.50;98.20;;;;;;5071701;28;20179;-75
2020/12/20 16:30:44;;;;;;;8.43;2.13;;;19.40;98.30;;;;;;5072519;28;20183;-75
2020/12/20 16:33:12;;;;;;;7.33;2.20;;;19.50;98.20;;;;;;5058417;28;20271;-74
2020/12/20 16:35:42;;;;;;;4.23;1.87;;;19.40;98.40;;;;;;5058971;28;20617;-75
2020/12/20 16:38:09;;;;;;;5.20;1.90;;;19.40;98.40;;;;;;5071918;28;20561;-74
2020/12/20 16:40:36;;;;;;;7.63;2.37;;;19.40;98.40;;;;;;5071949;28;20195;-75
2020/12/20 16:43:04;;;;;;;5.87;2.40;;;19.40;98.40;;;;;;5072580;28;20548;-75
2020/12/20 16:45:31;;;;;;;3.10;1.80;;;19.40;98.60;;;;;;5070674;28;20256;-74
2020/12/20 16:47:58;;;;;;;5.73;2.17;;;19.40;98.50;;;;;;5073111;28;20266;-74
2020/12/20 16:50:25;;;;;;;7.40;2.10;;;19.40;98.50;;;;;;5076067;28;20620;-78
2020/12/20 16:52:54;;;;;;;7.13;2.17;;;19.30;98.50;;;;;;5076212;28;20245;-78
2020/12/20 16:55:21;;;;;;;8.10;2.03;;;19.30;98.40;;;;;;5074705;28;20560;-78
2020/12/20 16:57:48;;;;;;;6.00;1.70;;;19.30;98.50;;;;;;5076004;28;20228;-78
2020/12/20 17:00:16;;;;;;;6.83;2.10;;;19.30;98.60;;;;;;5075390;28;20258;-75
2020/12/20 17:02:44;;;;;;;7.23;2.20;;;19.30;98.60;;;;;;5075566;28;20189;-79
2020/12/20 17:05:11;;;;;;;6.07;2.37;;;19.30;98.60;;;;;;5075803;28;20254;-78
2020/12/20 17:07:38;;;;;;;5.70;1.87;;;19.30;98.70;;;;;;5075642;28;20190;-77
2020/12/20 17:10:06;;;;;;;5.73;2.53;;;19.30;98.60;;;;;;5075073;28;20175;-76
2020/12/20 17:12:33;;;;;;;5.27;1.83;;;19.30;98.50;;;;;;5075742;28;20183;-80
2020/12/20 17:15:01;;;;;;;3.83;1.90;;;19.20;98.40;;;;;;5074981;28;20244;-76
2020/12/20 17:17:28;;;;;;;6.77;2.37;;;19.20;98.40;;;;;;5075403;28;20721;-79
2020/12/20 17:19:55;;;;;;;7.47;2.40;;;19.20;98.60;;;;;;5075092;28;20179;-78
2020/12/20 17:22:23;;;;;;;5.97;2.23;;;19.20;98.50;;;;;;5075611;28;20175;-77
2020/12/20 17:24:50;;;;;;;5.30;2.07;;;19.20;98.60;;;;;;5074615;28;20233;-79
2020/12/20 17:27:17;;;;;;;6.23;2.03;;;19.20;98.60;;;;;;5074436;28;20182;-78
2020/12/20 17:29:44;;;;;;;9.20;2.10;;;19.20;98.70;;;;;;5075623;28;20194;-80
2020/12/20 17:32:12;;;;;;;6.73;2.20;;;19.20;98.80;;;;;;5073846;28;20266;-79
2020/12/20 17:34:39;;;;;;;5.90;2.30;;;19.20;98.60;;;;;;5075253;28;20186;-80
2020/12/20 17:37:06;;;;;;;6.90;1.83;;;19.20;98.50;;;;;;5075341;28;20661;-79
2020/12/20 17:39:34;;;;;;;6.57;2.43;;;19.20;98.60;;;;;;5075519;28;20183;-78
2020/12/20 17:42:05;;;;;;;7.10;2.23;;;19.20;98.60;;;;;;5074950;28;20652;-76
2020/12/20 17:44:32;;;;;;;6.97;1.97;;;19.20;98.70;;;;;;5075025;28;20294;-80
2020/12/20 17:47:00;;;;;;;9.23;2.50;;;19.20;98.80;;;;;;5074785;28;20529;-78
2020/12/20 17:49:27;;;;;;;7.00;2.13;;;19.20;98.80;;;;;;5060515;28;20175;-78
2020/12/20 17:51:55;;;;;;;7.37;2.27;;;19.20;98.80;;;;;;5074948;28;20717;-77
2020/12/20 17:54:23;;;;;;;6.97;2.20;;;19.20;98.70;;;;;;5074273;28;20660;-77
2020/12/20 17:56:51;;;;;;;5.40;2.40;;;19.30;98.80;;;;;;5073341;28;20703;-75
2020/12/20 17:59:19;;;;;;;6.10;2.33;;;19.30;98.80;;;;;;5074702;28;20263;-76
2020/12/20 18:01:46;;;;;;;7.13;2.50;;;19.30;98.80;;;;;;5074331;28;20182;-75
2020/12/20 18:04:13;;;;;;;6.50;2.57;;;19.30;98.70;;;;;;5074446;28;20268;-77
2020/12/20 18:06:40;;;;;;;7.67;2.80;;;19.30;98.70;;;;;;5074851;28;20183;-78
2020/12/20 18:09:08;;;;;;;8.83;2.47;;;19.30;98.70;;;;;;5074424;28;20179;-79
2020/12/20 18:11:35;;;;;;;5.20;2.30;;;19.20;98.60;;;;;;5074479;28;20175;-75
2020/12/20 18:14:02;;;;;;;4.73;2.10;;;19.20;98.60;;;;;;5074329;28;20179;-78
2020/12/20 18:16:30;;;;;;;10.70;3.00;;;19.20;98.70;;;;;;5074170;28;20248;-75
2020/12/20 18:18:57;;;;;;;4.90;2.27;;;19.30;98.80;;;;;;5074278;28;20183;-75
2020/12/20 18:21:24;;;;;;;5.03;2.27;;;19.30;98.90;;;;;;5074562;28;20192;-79
2020/12/20 18:23:52;;;;;;;11.33;2.73;;;19.30;98.80;;;;;;5074282;28;20223;-76
2020/12/20 18:26:19;;;;;;;5.40;2.40;;;19.30;98.80;;;;;;5072302;28;20179;-77
2020/12/20 18:28:46;;;;;;;10.53;2.60;;;19.40;98.90;;;;;;5073676;28;20187;-75
2020/12/20 18:31:13;;;;;;;7.43;2.63;;;19.40;98.90;;;;;;5074186;28;20280;-78
2020/12/20 18:33:41;;;;;;;7.23;2.33;;;19.40;99.00;;;;;;5065498;28;20194;-76
2020/12/20 18:36:08;;;;;;;9.40;2.63;;;19.40;98.90;;;;;;5074323;28;20180;-77
2020/12/20 18:38:36;;;;;;;4.43;2.20;;;19.40;98.90;;;;;;5074095;28;20525;-77
2020/12/20 18:41:03;;;;;;;13.13;2.80;;;19.40;98.90;;;;;;5072793;28;20180;-78
2020/12/20 18:43:30;;;;;;;7.23;2.83;;;19.40;98.90;;;;;;5073665;28;20237;-75
2020/12/20 18:46:05;;;;;;;8.53;2.93;;;19.40;98.90;;;;;;5065356;28;20243;-75
2020/12/20 18:48:33;;;;;;;7.50;2.73;;;19.40;99.00;;;;;;5063514;28;20257;-75
2020/12/20 18:51:06;;;;;;;8.50;2.93;;;19.50;99.00;;;;;;5071230;28;20191;-78
2020/12/20 18:53:33;;;;;;;10.23;2.73;;;19.50;98.90;;;;;;5074070;28;20310;-79
2020/12/20 18:56:01;;;;;;;5.80;2.60;;;19.50;98.90;;;;;;5073720;28;20179;-76
2020/12/20 18:58:28;;;;;;;7.90;2.67;;;19.40;98.90;;;;;;5073493;28;20629;-75
2020/12/20 19:00:56;;;;;;;9.23;3.17;;;19.40;99.00;;;;;;5072399;28;20205;-74
2020/12/20 19:03:23;;;;;;;11.87;3.47;;;19.50;99.10;;;;;;5073764;28;20241;-80
2020/12/20 19:05:51;;;;;;;10.17;3.13;;;19.50;99.10;;;;;;5073766;28;20558;-79
2020/12/20 19:08:18;;;;;;;10.83;3.00;;;19.50;99.10;;;;;;5072544;28;20237;-78
2020/12/20 19:10:45;;;;;;;9.30;3.00;;;19.60;99.20;;;;;;5073287;28;20320;-77
2020/12/20 19:13:13;;;;;;;7.50;2.77;;;19.60;99.20;;;;;;5073461;28;20633;-76
2020/12/20 19:15:40;;;;;;;10.57;3.20;;;19.60;99.20;;;;;;5072429;28;20179;-78
2020/12/20 19:18:07;;;;;;;14.43;3.70;;;19.60;99.30;;;;;;5072847;28;20545;-76
2020/12/20 19:20:35;;;;;;;12.07;3.50;;;19.70;99.20;;;;;;5073414;28;20206;-79
2020/12/20 19:23:03;;;;;;;9.77;3.07;;;19.70;99.20;;;;;;5073169;28;20186;-77
2020/12/20 19:25:30;;;;;;;6.97;2.67;;;19.70;99.10;;;;;;5058448;28;20592;-78
2020/12/20 19:27:57;;;;;;;6.67;2.73;;;19.70;99.10;;;;;;5073071;28;20176;-77
2020/12/20 19:30:25;;;;;;;11.50;3.10;;;19.80;99.10;;;;;;5072556;28;20542;-79
2020/12/20 19:32:52;;;;;;;9.50;3.23;;;19.80;99.20;;;;;;5072798;28;20203;-75
2020/12/20 19:35:19;;;;;;;15.43;3.33;;;19.80;99.10;;;;;;5072840;28;20305;-79
2020/12/20 19:37:47;;;;;;;13.33;3.93;;;19.80;99.00;;;;;;5073274;28;20183;-75
2020/12/20 19:40:14;;;;;;;15.23;3.43;;;19.90;99.10;;;;;;5072487;28;20245;-76
2020/12/20 19:42:45;;;;;;;19.07;4.10;;;19.90;99.00;;;;;;5072182;28;20207;-76
2020/12/20 19:45:12;;;;;;;18.67;4.30;;;20.00;98.90;;;;;;5071371;28;20203;-75
2020/12/20 19:47:39;;;;;;;16.27;3.93;;;20.00;98.90;;;;;;5069769;28;20180;-75
2020/12/20 19:50:07;;;;;;;12.40;4.10;;;20.10;98.80;;;;;;5071043;28;20194;-74
2020/12/20 19:52:38;;;;;;;13.87;4.20;;;20.20;98.60;;;;;;5072908;28;20557;-75
2020/12/20 19:55:06;;;;;;;22.47;6.83;;;20.20;98.50;;;;;;5072815;28;20191;-75
2020/12/20 19:57:33;;;;;;;15.87;5.13;;;20.30;98.30;;;;;;5072817;28;20214;-75
2020/12/20 20:00:01;;;;;;;17.83;4.00;;;20.30;98.10;;;;;;5072153;28;20186;-76
2020/12/20 20:02:28;;;;;;;12.53;3.53;;;20.40;98.10;;;;;;5072325;28;20179;-76
2020/12/20 20:04:56;;;;;;;17.57;7.67;;;20.40;97.70;;;;;;5072046;28;20200;-74
2020/12/20 20:07:24;;;;;;;14.63;7.87;;;20.50;97.70;;;;;;5072914;28;20374;-74
2020/12/20 20:09:51;;;;;;;19.10;5.30;;;20.50;97.60;;;;;;5072376;28;20171;-75
2020/12/20 20:12:20;;;;;;;15.20;3.80;;;20.60;97.30;;;;;;5072533;28;20626;-75
2020/12/20 20:14:47;;;;;;;20.43;14.10;;;20.60;97.10;;;;;;5072064;28;20183;-74
2020/12/20 20:17:15;;;;;;;13.10;5.27;;;20.60;97.00;;;;;;5072474;28;20283;-76
2020/12/20 20:19:42;;;;;;;12.70;6.70;;;20.80;97.00;;;;;;5072664;28;20179;-75
2020/12/20 20:22:09;;;;;;;15.63;5.73;;;20.80;96.80;;;;;;5072325;28;20182;-78
2020/12/20 20:24:37;;;;;;;12.43;3.97;;;20.90;96.30;;;;;;5072055;28;20763;-74
2020/12/20 20:27:04;;;;;;;17.97;4.77;;;20.90;96.10;;;;;;5070484;28;20624;-79
2020/12/20 20:29:31;;;;;;;26.00;11.63;;;21.00;96.20;;;;;;5071263;28;20175;-74
2020/12/20 20:31:59;;;;;;;11.83;4.90;;;21.00;96.20;;;;;;5071673;28;20633;-79
2020/12/20 20:34:26;;;;;;;16.07;3.67;;;21.00;95.90;;;;;;5064934;28;20211;-78
2020/12/20 20:36:54;;;;;;;19.57;4.47;;;21.00;95.80;;;;;;5066927;28;20176;-76
2020/12/20 20:39:21;;;;;;;17.33;3.90;;;21.10;95.80;;;;;;5072057;28;20187;-76
2020/12/20 20:41:48;;;;;;;16.93;4.47;;;21.30;95.90;;;;;;5071947;28;20680;-76
2020/12/20 20:44:16;;;;;;;17.07;4.07;;;21.30;95.30;;;;;;5072162;28;20606;-78
2020/12/20 20:46:43;;;;;;;14.80;3.37;;;21.30;95.10;;;;;;5072489;28;20736;-74
2020/12/20 20:49:11;;;;;;;13.37;4.10;;;21.40;95.40;;;;;;5061395;28;20222;-79
2020/12/20 20:51:38;;;;;;;16.77;3.77;;;21.50;94.90;;;;;;5071782;28;20233;-78
2020/12/20 20:54:07;;;;;;;11.80;3.83;;;21.50;95.10;;;;;;5071224;28;20179;-80
2020/12/20 20:56:35;;;;;;;14.43;3.60;;;21.50;94.50;;;;;;5071618;28;20240;-79
2020/12/20 20:59:03;;;;;;;14.77;3.57;;;21.40;94.90;;;;;;5071524;28;20232;-78
2020/12/20 21:01:31;;;;;;;7.43;2.87;;;21.40;94.60;;;;;;5070187;28;20720;-79
2020/12/20 21:03:59;;;;;;;11.97;3.73;;;21.30;94.80;;;;;;5071054;28;20208;-80
2020/12/20 21:06:28;;;;;;;11.53;3.00;;;21.30;94.70;;;;;;5071498;28;20175;-78
2020/12/20 21:08:56;;;;;;;10.90;4.03;;;21.30;94.80;;;;;;5071025;28;20191;-79
2020/12/20 21:11:26;;;;;;;9.33;3.47;;;21.30;94.90;;;;;;5070995;28;20187;-79
2020/12/20 21:13:54;;;;;;;13.97;3.67;;;21.30;94.80;;;;;;5071558;28;20185;-79